메인 페이지
METAR-TAF:

METAR-TAF

공항 :

자그레브, 크로아티아

자그레브 국제공항

위도: 45-44N, 경도: 016-04E, 고도: 106m

현재 날씨관측

예보는 19분 전, 05:30시(UTC)에 발표되었습니다.
북북동6kt풍과 북동풍을 오가는
온도 1°C
습도 86%
기압 1012 hPa
시정 10km 이상
고도 1100ft 상공 흐림
약한눈

METAR: LDZA 200530Z 02006KT 350V050 9999 -SN OVC011 01/M01 Q1012 R05/29//95 NOSIG

시각: 06:49 (05:49 UTC)

예보

예보는 24분 전, 05:25시(UTC)에 발표되었습니다.
예보 대상 시간: 20일 06시부터 21일 06시까지 (UTC)
북동8kt
시정: 8000m
고도 1000ft 상공 구름 보통
고도 3000ft 상공 흐림
일시적
20일 06시부터 21일 06시까지 (UTC)
시정: 3000m
고도 1000ft 상공 흐림
약한눈
확률 30% :
일시적
20일 06시부터 21일 06시까지 (UTC)
시정: 0600m
고도 300ft 상공 흐림
일시적
21일 02시부터 21일 06시까지 (UTC)
북동13kt

TAF: LDZA 200525Z 2006/2106 04008KT 8000 SCT010 OVC030 TX02/2012Z TN00/2019Z TEMPO 2006/2106 3000 -SN OVC010 PROB30 TEMPO 2006/2106 0600 SN OVC003 TEMPO 2102/2106 04013KT

4,000개 이상의 공항 관측 자료 및 예보 (METAR 및 TAF 보고).

지도상에서 검색 가능한 기상관측소가 노란 점과 빨간 점으로 표시되어 있습니다.

기상관측소 명을 보려면 표시 위로 마우스를 이동하세요.

날씨 관측과 예보를 보려면 클릭하세요.

지도 변경 : 확대하려면 엑스 표시가 있는 녹색 버튼, 축소하려면 빼기 표시가 있는 녹색 버튼, 다음 페이지의 지도를 보려면 녹색 화살표를 클릭하세요.


METAR-TAF: